CES5426 ZUCK-ZSSS
Flight info
| Callsign | CES5426 |
|---|---|
| Flight time | 1h 58m |
| Altitude | 33100 |
| Route | GUVIV V156 UXAXU V154 SNF W269 OLPOV B213 WHA R343 PK |
| Aircraft | A320/M-SDE3FGHIRWY/LB1 |
Departure
| Time | 2026-04-22 13:41 |
|---|---|
| Airport | Chongqing Jiangbei International Airport (ZUCK) |
Arrival
| Time | 2026-04-22 15:39 |
|---|---|
| Airport | Shanghai Hongqiao International Airport (ZSSS) |
| Time | Latitude | Longitude | Altitude | Speed | Heading |
|---|---|---|---|---|---|
| 2026-04-22 13:13 | 29.71848 | 106.65005 | 1370 ft | 0 kts | 107° |
| 2026-04-22 13:25 | 29.71849 | 106.65002 | 1370 ft | 2 kts | 108° |
| 2026-04-22 13:25 | 29.71853 | 106.64985 | 1370 ft | 2 kts | 107° |
| 2026-04-22 13:25 | 29.71858 | 106.64969 | 1370 ft | 2 kts | 107° |
| 2026-04-22 13:26 | 29.71862 | 106.64952 | 1370 ft | 2 kts | 107° |
| 2026-04-22 13:26 | 29.71864 | 106.64936 | 1370 ft | 2 kts | 70° |
| 2026-04-22 13:26 | 29.71855 | 106.64922 | 1370 ft | 2 kts | 27° |
| 2026-04-22 13:26 | 29.71841 | 106.64918 | 1370 ft | 2 kts | 15° |
| 2026-04-22 13:27 | 29.71827 | 106.64912 | 1370 ft | 1 kts | 17° |
| 2026-04-22 13:27 | 29.71824 | 106.64912 | 1370 ft | 0 kts | 16° |
| 2026-04-22 13:32 | 29.71825 | 106.64912 | 1370 ft | 0 kts | 16° |
| 2026-04-22 13:33 | 29.71834 | 106.64915 | 1370 ft | 1 kts | 16° |
| 2026-04-22 13:33 | 29.71853 | 106.64922 | 1370 ft | 6 kts | 16° |
| 2026-04-22 13:33 | 29.71932 | 106.64950 | 1370 ft | 16 kts | 17° |
| 2026-04-22 13:33 | 29.72042 | 106.64987 | 1370 ft | 10 kts | 19° |
| 2026-04-22 13:34 | 29.72065 | 106.65054 | 1370 ft | 9 kts | 95° |
| 2026-04-22 13:34 | 29.72049 | 106.65128 | 1370 ft | 9 kts | 107° |
| 2026-04-22 13:34 | 29.72028 | 106.65204 | 1370 ft | 10 kts | 107° |
| 2026-04-22 13:34 | 29.72002 | 106.65298 | 1370 ft | 13 kts | 107° |
| 2026-04-22 13:35 | 29.71976 | 106.65401 | 1370 ft | 12 kts | 108° |
| 2026-04-22 13:35 | 29.71949 | 106.65507 | 1370 ft | 16 kts | 107° |
| 2026-04-22 13:35 | 29.71910 | 106.65648 | 1371 ft | 18 kts | 107° |
| 2026-04-22 13:35 | 29.71874 | 106.65786 | 1371 ft | 15 kts | 106° |
| 2026-04-22 13:36 | 29.71833 | 106.65868 | 1371 ft | 10 kts | 163° |
| 2026-04-22 13:36 | 29.71759 | 106.65851 | 1371 ft | 11 kts | 198° |
| 2026-04-22 13:36 | 29.71682 | 106.65823 | 1371 ft | 11 kts | 197° |
| 2026-04-22 13:36 | 29.71599 | 106.65794 | 1371 ft | 13 kts | 197° |
| 2026-04-22 13:37 | 29.71551 | 106.65778 | 1371 ft | 0 kts | 191° |
| 2026-04-22 13:37 | 29.71536 | 106.65795 | 1371 ft | 4 kts | 114° |
| 2026-04-22 13:37 | 29.71525 | 106.65832 | 1371 ft | 4 kts | 108° |
| 2026-04-22 13:37 | 29.71514 | 106.65871 | 1371 ft | 5 kts | 107° |
| 2026-04-22 13:38 | 29.71504 | 106.65912 | 1371 ft | 5 kts | 106° |
| 2026-04-22 13:38 | 29.71469 | 106.66047 | 1371 ft | 10 kts | 106° |
| 2026-04-22 13:38 | 29.71451 | 106.66128 | 1371 ft | 9 kts | 92° |
| 2026-04-22 13:39 | 29.71501 | 106.66172 | 1371 ft | 9 kts | 18° |
| 2026-04-22 13:39 | 29.71509 | 106.66175 | 1371 ft | 0 kts | 14° |
| 2026-04-22 13:40 | 29.71512 | 106.66176 | 1371 ft | 3 kts | 14° |
| 2026-04-22 13:40 | 29.71734 | 106.66253 | 1371 ft | 67 kts | 15° |
| 2026-04-22 13:41 | 29.72401 | 106.66480 | 1372 ft | 129 kts | 18° |
| 2026-04-22 13:41 | 29.73418 | 106.66839 | 1442 ft | 170 kts | 16° |
| 2026-04-22 13:41 | 29.74505 | 106.67236 | 2152 ft | 160 kts | 15° |
| 2026-04-22 13:41 | 29.75561 | 106.67612 | 2737 ft | 163 kts | 16° |
| 2026-04-22 13:42 | 29.76658 | 106.67990 | 3307 ft | 166 kts | 16° |
| 2026-04-22 13:42 | 29.77728 | 106.68464 | 3892 ft | 167 kts | 27° |
| 2026-04-22 13:42 | 29.78687 | 106.69208 | 4438 ft | 169 kts | 38° |
| 2026-04-22 13:42 | 29.79646 | 106.70081 | 4822 ft | 182 kts | 34° |
| 2026-04-22 13:43 | 29.80740 | 106.70910 | 5155 ft | 199 kts | 31° |
| 2026-04-22 13:43 | 29.81997 | 106.71790 | 5466 ft | 221 kts | 31° |
| 2026-04-22 13:43 | 29.83394 | 106.72775 | 5698 ft | 247 kts | 31° |
| 2026-04-22 13:43 | 29.84885 | 106.73841 | 6168 ft | 262 kts | 31° |
| 2026-04-22 13:44 | 29.86455 | 106.74975 | 6866 ft | 269 kts | 31° |
| 2026-04-22 13:44 | 29.88031 | 106.76125 | 7728 ft | 268 kts | 31° |
| 2026-04-22 13:44 | 29.89590 | 106.77266 | 8509 ft | 269 kts | 31° |
| 2026-04-22 13:44 | 29.91177 | 106.78427 | 9248 ft | 271 kts | 31° |
| 2026-04-22 13:45 | 29.92777 | 106.79596 | 9968 ft | 273 kts | 31° |
| 2026-04-22 13:45 | 29.94387 | 106.80773 | 10522 ft | 281 kts | 31° |
| 2026-04-22 13:45 | 29.96095 | 106.82019 | 10823 ft | 297 kts | 31° |
| 2026-04-22 13:45 | 29.97879 | 106.83318 | 11103 ft | 313 kts | 31° |
| 2026-04-22 13:46 | 29.99763 | 106.84693 | 11391 ft | 328 kts | 31° |
| 2026-04-22 13:46 | 30.01707 | 106.86112 | 11857 ft | 335 kts | 31° |
| 2026-04-22 13:46 | 30.03707 | 106.87574 | 12433 ft | 339 kts | 31° |
| 2026-04-22 13:46 | 30.05696 | 106.89007 | 12938 ft | 344 kts | 30° |
| 2026-04-22 13:47 | 30.07754 | 106.90474 | 13465 ft | 348 kts | 30° |
| 2026-04-22 13:47 | 30.09835 | 106.91954 | 13977 ft | 352 kts | 30° |
| 2026-04-22 13:47 | 30.11913 | 106.93436 | 14485 ft | 356 kts | 30° |
| 2026-04-22 13:47 | 30.14010 | 106.94932 | 14978 ft | 359 kts | 30° |
| 2026-04-22 13:48 | 30.16153 | 106.96466 | 15469 ft | 363 kts | 29° |
| 2026-04-22 13:48 | 30.18302 | 106.98001 | 15942 ft | 367 kts | 29° |
| 2026-04-22 13:48 | 30.20510 | 106.99580 | 16410 ft | 371 kts | 29° |
| 2026-04-22 13:48 | 30.22692 | 107.01141 | 16860 ft | 374 kts | 29° |
| 2026-04-22 13:49 | 30.24929 | 107.02743 | 17322 ft | 378 kts | 29° |
| 2026-04-22 13:49 | 30.27177 | 107.04355 | 17770 ft | 381 kts | 29° |
| 2026-04-22 13:49 | 30.29426 | 107.05970 | 18220 ft | 384 kts | 29° |
| 2026-04-22 13:49 | 30.31694 | 107.07597 | 18667 ft | 387 kts | 29° |
| 2026-04-22 13:50 | 30.34005 | 107.09260 | 19113 ft | 390 kts | 28° |
| 2026-04-22 13:50 | 30.36321 | 107.10925 | 19557 ft | 393 kts | 28° |
| 2026-04-22 13:50 | 30.38653 | 107.12601 | 19993 ft | 395 kts | 28° |
| 2026-04-22 13:50 | 30.40966 | 107.14267 | 20401 ft | 398 kts | 28° |
| 2026-04-22 13:51 | 30.43336 | 107.15972 | 20814 ft | 401 kts | 28° |
| 2026-04-22 13:51 | 30.45706 | 107.17678 | 21208 ft | 403 kts | 28° |
| 2026-04-22 13:51 | 30.48097 | 107.19404 | 21589 ft | 406 kts | 28° |
| 2026-04-22 13:51 | 30.50505 | 107.21143 | 21979 ft | 409 kts | 28° |
| 2026-04-22 13:52 | 30.52941 | 107.22901 | 22358 ft | 412 kts | 28° |
| 2026-04-22 13:52 | 30.55323 | 107.24753 | 22729 ft | 416 kts | 31° |
| 2026-04-22 13:52 | 30.57664 | 107.26730 | 23105 ft | 418 kts | 32° |
| 2026-04-22 13:52 | 30.60030 | 107.28760 | 23449 ft | 422 kts | 32° |
| 2026-04-22 13:53 | 30.62395 | 107.30795 | 23731 ft | 426 kts | 32° |
| 2026-04-22 13:53 | 30.64784 | 107.32849 | 24028 ft | 429 kts | 32° |
| 2026-04-22 13:53 | 30.67199 | 107.34928 | 24308 ft | 433 kts | 32° |
| 2026-04-22 13:53 | 30.69612 | 107.37003 | 24588 ft | 437 kts | 32° |
| 2026-04-22 13:54 | 30.72063 | 107.39109 | 24856 ft | 441 kts | 32° |
| 2026-04-22 13:54 | 30.74538 | 107.41240 | 25114 ft | 445 kts | 32° |
| 2026-04-22 13:54 | 30.77062 | 107.43416 | 25378 ft | 449 kts | 32° |
| 2026-04-22 13:54 | 30.79595 | 107.45602 | 25651 ft | 452 kts | 32° |
| 2026-04-22 13:55 | 30.82132 | 107.47791 | 25921 ft | 455 kts | 32° |
| 2026-04-22 13:55 | 30.84671 | 107.49984 | 26189 ft | 459 kts | 32° |
| 2026-04-22 13:55 | 30.87254 | 107.52213 | 26449 ft | 462 kts | 32° |
| 2026-04-22 13:55 | 30.89855 | 107.54462 | 26703 ft | 465 kts | 32° |
| 2026-04-22 13:56 | 30.92486 | 107.56738 | 26952 ft | 468 kts | 32° |
| 2026-04-22 13:56 | 30.95096 | 107.58997 | 27210 ft | 471 kts | 32° |
| 2026-04-22 13:56 | 30.97742 | 107.61292 | 27487 ft | 474 kts | 32° |
| 2026-04-22 13:56 | 31.00395 | 107.63596 | 27740 ft | 477 kts | 32° |
| 2026-04-22 13:57 | 31.02920 | 107.66136 | 27891 ft | 488 kts | 46° |
| 2026-04-22 13:57 | 31.04726 | 107.69535 | 28024 ft | 497 kts | 68° |
| 2026-04-22 13:57 | 31.05485 | 107.73463 | 28241 ft | 497 kts | 88° |
| 2026-04-22 13:57 | 31.05545 | 107.77470 | 28503 ft | 498 kts | 92° |
| 2026-04-22 13:58 | 31.05537 | 107.81547 | 28723 ft | 501 kts | 92° |
| 2026-04-22 13:58 | 31.05539 | 107.85618 | 28888 ft | 505 kts | 92° |
| 2026-04-22 13:58 | 31.05567 | 107.89725 | 29073 ft | 508 kts | 92° |
| 2026-04-22 13:58 | 31.05621 | 107.93838 | 29287 ft | 510 kts | 92° |
| 2026-04-22 13:59 | 31.05681 | 107.97924 | 29539 ft | 512 kts | 92° |
| 2026-04-22 13:59 | 31.05742 | 108.02125 | 29721 ft | 515 kts | 91° |
| 2026-04-22 13:59 | 31.05808 | 108.06303 | 30015 ft | 516 kts | 91° |
| 2026-04-22 13:59 | 31.05875 | 108.10452 | 30346 ft | 515 kts | 91° |
| 2026-04-22 14:00 | 31.05942 | 108.14603 | 30628 ft | 516 kts | 91° |
| 2026-04-22 14:00 | 31.06010 | 108.18813 | 30928 ft | 516 kts | 91° |
| 2026-04-22 14:00 | 31.06077 | 108.22975 | 31264 ft | 515 kts | 91° |
| 2026-04-22 14:00 | 31.06139 | 108.27096 | 31582 ft | 514 kts | 91° |
| 2026-04-22 14:01 | 31.06200 | 108.31263 | 31821 ft | 516 kts | 91° |
| 2026-04-22 14:01 | 31.06261 | 108.35445 | 32076 ft | 517 kts | 91° |
| 2026-04-22 14:01 | 31.06322 | 108.39666 | 32326 ft | 518 kts | 92° |
| 2026-04-22 14:01 | 31.06378 | 108.43846 | 32595 ft | 518 kts | 91° |
| 2026-04-22 14:02 | 31.06434 | 108.48021 | 32861 ft | 518 kts | 91° |
| 2026-04-22 14:02 | 31.06492 | 108.52235 | 33095 ft | 519 kts | 91° |
| 2026-04-22 14:02 | 31.06601 | 108.60653 | 33137 ft | 519 kts | 91° |
| 2026-04-22 14:03 | 31.06650 | 108.64851 | 33299 ft | 521 kts | 91° |
| 2026-04-22 14:03 | 31.06703 | 108.69076 | 33571 ft | 520 kts | 92° |
| 2026-04-22 14:03 | 31.06750 | 108.73270 | 33777 ft | 521 kts | 92° |
| 2026-04-22 14:03 | 31.06799 | 108.77524 | 33908 ft | 523 kts | 92° |
| 2026-04-22 14:04 | 31.06846 | 108.81764 | 34078 ft | 524 kts | 92° |
| 2026-04-22 14:04 | 31.06884 | 108.85993 | 34231 ft | 525 kts | 91° |
| 2026-04-22 14:04 | 31.06926 | 108.90234 | 34381 ft | 526 kts | 91° |
| 2026-04-22 14:04 | 31.06970 | 108.94524 | 34560 ft | 527 kts | 91° |
| 2026-04-22 14:05 | 31.07014 | 108.98753 | 34714 ft | 528 kts | 91° |
| 2026-04-22 14:05 | 31.07054 | 109.03090 | 34870 ft | 529 kts | 91° |
| 2026-04-22 14:05 | 31.07127 | 109.11661 | 35135 ft | 531 kts | 90° |
| 2026-04-22 14:06 | 31.07165 | 109.15942 | 35138 ft | 531 kts | 91° |
| 2026-04-22 14:06 | 31.07234 | 109.24489 | 35149 ft | 532 kts | 90° |
| 2026-04-22 14:07 | 31.07296 | 109.33141 | 35151 ft | 532 kts | 90° |
| 2026-04-22 14:07 | 31.07358 | 109.41681 | 35149 ft | 531 kts | 91° |
| 2026-04-22 14:08 | 31.07401 | 109.50273 | 35150 ft | 531 kts | 91° |
| 2026-04-22 14:08 | 31.07447 | 109.58843 | 35152 ft | 530 kts | 90° |
| 2026-04-22 14:09 | 31.07198 | 109.67422 | 35148 ft | 527 kts | 98° |
| 2026-04-22 14:09 | 31.06044 | 109.75766 | 35068 ft | 521 kts | 107° |
| 2026-04-22 14:10 | 31.03987 | 109.83819 | 35133 ft | 519 kts | 113° |
| 2026-04-22 14:10 | 31.01665 | 109.91790 | 35147 ft | 519 kts | 112° |
| 2026-04-22 14:11 | 30.99364 | 109.99779 | 35153 ft | 520 kts | 112° |
| 2026-04-22 14:11 | 30.97080 | 110.07767 | 35298 ft | 519 kts | 111° |
| 2026-04-22 14:11 | 30.95949 | 110.11739 | 35053 ft | 517 kts | 112° |
| 2026-04-22 14:12 | 30.94813 | 110.15709 | 35210 ft | 517 kts | 112° |
| 2026-04-22 14:12 | 30.92530 | 110.23663 | 35168 ft | 519 kts | 112° |
| 2026-04-22 14:13 | 30.90238 | 110.31629 | 35165 ft | 520 kts | 112° |
| 2026-04-22 14:13 | 30.87930 | 110.39634 | 35171 ft | 519 kts | 112° |
| 2026-04-22 14:14 | 30.85622 | 110.47619 | 35170 ft | 521 kts | 112° |
| 2026-04-22 14:14 | 30.83309 | 110.55601 | 35173 ft | 521 kts | 112° |
| 2026-04-22 14:15 | 30.80993 | 110.63579 | 35172 ft | 522 kts | 112° |
| 2026-04-22 14:15 | 30.78668 | 110.71561 | 35169 ft | 522 kts | 112° |
| 2026-04-22 14:16 | 30.76337 | 110.79540 | 35162 ft | 523 kts | 112° |
| 2026-04-22 14:16 | 30.73987 | 110.87574 | 35273 ft | 528 kts | 112° |
| 2026-04-22 14:17 | 30.71602 | 110.95678 | 35399 ft | 533 kts | 112° |
| 2026-04-22 14:17 | 30.69203 | 111.03851 | 35613 ft | 536 kts | 111° |
| 2026-04-22 14:17 | 30.67995 | 111.07945 | 35742 ft | 536 kts | 112° |
| 2026-04-22 14:18 | 30.66788 | 111.12033 | 35916 ft | 536 kts | 111° |
| 2026-04-22 14:18 | 30.65562 | 111.16187 | 36040 ft | 537 kts | 111° |
| 2026-04-22 14:18 | 30.64530 | 111.20329 | 36162 ft | 539 kts | 105° |
| 2026-04-22 14:18 | 30.63805 | 111.24608 | 36278 ft | 541 kts | 99° |
| 2026-04-22 14:19 | 30.63424 | 111.28948 | 36386 ft | 542 kts | 92° |
| 2026-04-22 14:19 | 30.63396 | 111.33321 | 36517 ft | 541 kts | 85° |
| 2026-04-22 14:19 | 30.63718 | 111.37625 | 36625 ft | 540 kts | 79° |
| 2026-04-22 14:19 | 30.64311 | 111.41977 | 36735 ft | 539 kts | 77° |
| 2026-04-22 14:20 | 30.65382 | 111.50530 | 37033 ft | 540 kts | 83° |
| 2026-04-22 14:20 | 30.65651 | 111.54889 | 37144 ft | 540 kts | 85° |
| 2026-04-22 14:20 | 30.65864 | 111.59273 | 37139 ft | 541 kts | 85° |
| 2026-04-22 14:21 | 30.66486 | 111.72312 | 37143 ft | 541 kts | 85° |
| 2026-04-22 14:22 | 30.67155 | 111.85388 | 37141 ft | 540 kts | 85° |
| 2026-04-22 14:23 | 30.67819 | 111.98386 | 37136 ft | 539 kts | 84° |
| 2026-04-22 14:23 | 30.68410 | 112.07082 | 37134 ft | 539 kts | 83° |
| 2026-04-22 14:24 | 30.69021 | 112.15744 | 37131 ft | 538 kts | 83° |
| 2026-04-22 14:24 | 30.69614 | 112.24349 | 37136 ft | 538 kts | 83° |
| 2026-04-22 14:25 | 30.70193 | 112.33003 | 37134 ft | 536 kts | 83° |
| 2026-04-22 14:25 | 30.70764 | 112.41597 | 37136 ft | 536 kts | 84° |
| 2026-04-22 14:26 | 30.71330 | 112.50243 | 37136 ft | 537 kts | 84° |
| 2026-04-22 14:26 | 30.71884 | 112.58835 | 37130 ft | 536 kts | 83° |
| 2026-04-22 14:27 | 30.72435 | 112.67415 | 37134 ft | 535 kts | 84° |
| 2026-04-22 14:27 | 30.72984 | 112.76031 | 37127 ft | 535 kts | 84° |
| 2026-04-22 14:28 | 30.73522 | 112.84601 | 37148 ft | 535 kts | 84° |
| 2026-04-22 14:28 | 30.74056 | 112.93204 | 37144 ft | 533 kts | 84° |
| 2026-04-22 14:29 | 30.74588 | 113.01769 | 37133 ft | 533 kts | 84° |
| 2026-04-22 14:29 | 30.75108 | 113.10368 | 37136 ft | 533 kts | 84° |
| 2026-04-22 14:30 | 30.75486 | 113.18929 | 37147 ft | 532 kts | 86° |
| 2026-04-22 14:30 | 30.75706 | 113.27471 | 37125 ft | 532 kts | 87° |
| 2026-04-22 14:31 | 30.75910 | 113.36020 | 37133 ft | 530 kts | 86° |
| 2026-04-22 14:31 | 30.76123 | 113.44595 | 37130 ft | 529 kts | 87° |
| 2026-04-22 14:32 | 30.76325 | 113.53063 | 37142 ft | 528 kts | 87° |
| 2026-04-22 14:32 | 30.76525 | 113.61581 | 37131 ft | 528 kts | 87° |
| 2026-04-22 14:33 | 30.76720 | 113.70053 | 37133 ft | 527 kts | 88° |
| 2026-04-22 14:33 | 30.76910 | 113.78554 | 37137 ft | 526 kts | 87° |
| 2026-04-22 14:34 | 30.77095 | 113.87043 | 37132 ft | 526 kts | 87° |
| 2026-04-22 14:34 | 30.77273 | 113.95515 | 37136 ft | 524 kts | 88° |
| 2026-04-22 14:35 | 30.77462 | 114.03970 | 37136 ft | 524 kts | 86° |
| 2026-04-22 14:35 | 30.77880 | 114.12389 | 37137 ft | 523 kts | 83° |
| 2026-04-22 14:36 | 30.78976 | 114.20760 | 37136 ft | 520 kts | 75° |
| 2026-04-22 14:36 | 30.80959 | 114.28837 | 37135 ft | 518 kts | 67° |
| 2026-04-22 14:37 | 30.83499 | 114.36650 | 37133 ft | 517 kts | 65° |
| 2026-04-22 14:37 | 30.86068 | 114.44508 | 37133 ft | 517 kts | 66° |
| 2026-04-22 14:38 | 30.88593 | 114.52301 | 37129 ft | 517 kts | 66° |
| 2026-04-22 14:38 | 30.91146 | 114.60154 | 37125 ft | 516 kts | 66° |
| 2026-04-22 14:39 | 30.93673 | 114.67944 | 37124 ft | 516 kts | 66° |
| 2026-04-22 14:39 | 30.96216 | 114.75828 | 37124 ft | 516 kts | 67° |
| 2026-04-22 14:40 | 30.99982 | 114.87543 | 37117 ft | 515 kts | 67° |
| 2026-04-22 14:40 | 31.02516 | 114.95422 | 37122 ft | 515 kts | 67° |
| 2026-04-22 14:41 | 31.05016 | 115.03230 | 37102 ft | 516 kts | 67° |
| 2026-04-22 14:41 | 31.07514 | 115.11056 | 37106 ft | 515 kts | 67° |
| 2026-04-22 14:42 | 31.10014 | 115.18906 | 37120 ft | 515 kts | 67° |
| 2026-04-22 14:42 | 31.12503 | 115.26766 | 37104 ft | 515 kts | 67° |
| 2026-04-22 14:43 | 31.15015 | 115.34601 | 37139 ft | 515 kts | 66° |
| 2026-04-22 14:43 | 31.17560 | 115.42421 | 37115 ft | 519 kts | 67° |
| 2026-04-22 14:44 | 31.20116 | 115.50317 | 37224 ft | 521 kts | 66° |
| 2026-04-22 14:44 | 31.21396 | 115.54298 | 37395 ft | 520 kts | 66° |
| 2026-04-22 14:44 | 31.22662 | 115.58231 | 37528 ft | 520 kts | 67° |
| 2026-04-22 14:45 | 31.23936 | 115.62181 | 37641 ft | 520 kts | 67° |
| 2026-04-22 14:45 | 31.25196 | 115.66112 | 37796 ft | 519 kts | 67° |
| 2026-04-22 14:45 | 31.26460 | 115.70059 | 37900 ft | 519 kts | 67° |
| 2026-04-22 14:45 | 31.27739 | 115.74044 | 37970 ft | 520 kts | 67° |
| 2026-04-22 14:46 | 31.30247 | 115.81897 | 38096 ft | 515 kts | 67° |
| 2026-04-22 14:46 | 31.31499 | 115.85825 | 37883 ft | 507 kts | 67° |
| 2026-04-22 14:46 | 31.32743 | 115.89713 | 37363 ft | 509 kts | 67° |
| 2026-04-22 14:47 | 31.34012 | 115.93595 | 36860 ft | 517 kts | 67° |
| 2026-04-22 14:47 | 31.35306 | 115.97536 | 36743 ft | 522 kts | 67° |
| 2026-04-22 14:47 | 31.36597 | 116.01481 | 36935 ft | 521 kts | 67° |
| 2026-04-22 14:47 | 31.37880 | 116.05426 | 37115 ft | 519 kts | 67° |
| 2026-04-22 14:48 | 31.40430 | 116.13273 | 36503 ft | 511 kts | 67° |
| 2026-04-22 14:48 | 31.41690 | 116.17147 | 35657 ft | 515 kts | 68° |
| 2026-04-22 14:48 | 31.42968 | 116.21085 | 35212 ft | 519 kts | 68° |
| 2026-04-22 14:49 | 31.45530 | 116.29017 | 35126 ft | 523 kts | 68° |
| 2026-04-22 14:49 | 31.48080 | 116.36930 | 35127 ft | 524 kts | 68° |
| 2026-04-22 14:50 | 31.50656 | 116.44940 | 35121 ft | 525 kts | 68° |
| 2026-04-22 14:50 | 31.53225 | 116.52962 | 35130 ft | 525 kts | 67° |
| 2026-04-22 14:51 | 31.55799 | 116.60991 | 35124 ft | 527 kts | 68° |
| 2026-04-22 14:51 | 31.58379 | 116.69080 | 35137 ft | 528 kts | 68° |
| 2026-04-22 14:52 | 31.60946 | 116.77144 | 35129 ft | 527 kts | 68° |
| 2026-04-22 14:52 | 31.63510 | 116.85217 | 35132 ft | 530 kts | 68° |
| 2026-04-22 14:53 | 31.66078 | 116.93315 | 35132 ft | 530 kts | 68° |
| 2026-04-22 14:53 | 31.68644 | 117.01464 | 35132 ft | 531 kts | 67° |
| 2026-04-22 14:54 | 31.71161 | 117.09544 | 35128 ft | 531 kts | 68° |
| 2026-04-22 14:54 | 31.73674 | 117.17718 | 35129 ft | 531 kts | 67° |
| 2026-04-22 14:55 | 31.75969 | 117.25954 | 35125 ft | 533 kts | 75° |
| 2026-04-22 14:55 | 31.77020 | 117.34559 | 35137 ft | 532 kts | 88° |
| 2026-04-22 14:56 | 31.76729 | 117.43209 | 35123 ft | 531 kts | 96° |
| 2026-04-22 14:56 | 31.76051 | 117.51870 | 35116 ft | 531 kts | 96° |
| 2026-04-22 14:57 | 31.75420 | 117.60299 | 35116 ft | 506 kts | 95° |
| 2026-04-22 14:57 | 31.74841 | 117.68463 | 35120 ft | 502 kts | 96° |
| 2026-04-22 14:58 | 31.74268 | 117.76601 | 35112 ft | 500 kts | 96° |
| 2026-04-22 14:58 | 31.73684 | 117.84760 | 35046 ft | 500 kts | 96° |
| 2026-04-22 14:59 | 31.73393 | 117.88813 | 34827 ft | 500 kts | 96° |
| 2026-04-22 14:59 | 31.73093 | 117.92857 | 34568 ft | 499 kts | 96° |
| 2026-04-22 14:59 | 31.72797 | 117.96906 | 34361 ft | 497 kts | 95° |
| 2026-04-22 14:59 | 31.72500 | 118.00989 | 34149 ft | 498 kts | 95° |
| 2026-04-22 15:00 | 31.72204 | 118.05062 | 33884 ft | 499 kts | 96° |
| 2026-04-22 15:00 | 31.71903 | 118.09145 | 33633 ft | 500 kts | 96° |
| 2026-04-22 15:00 | 31.71610 | 118.13182 | 33397 ft | 500 kts | 95° |
| 2026-04-22 15:00 | 31.71326 | 118.17322 | 33137 ft | 502 kts | 96° |
| 2026-04-22 15:01 | 31.71046 | 118.21383 | 32892 ft | 502 kts | 95° |
| 2026-04-22 15:01 | 31.70762 | 118.25483 | 32626 ft | 503 kts | 96° |
| 2026-04-22 15:01 | 31.70477 | 118.29591 | 32411 ft | 502 kts | 96° |
| 2026-04-22 15:01 | 31.70190 | 118.33688 | 32159 ft | 503 kts | 95° |
| 2026-04-22 15:02 | 31.69903 | 118.37723 | 31912 ft | 505 kts | 95° |
| 2026-04-22 15:02 | 31.69607 | 118.41858 | 31656 ft | 506 kts | 96° |
| 2026-04-22 15:02 | 31.69319 | 118.45931 | 31393 ft | 505 kts | 96° |
| 2026-04-22 15:02 | 31.69021 | 118.50079 | 31149 ft | 506 kts | 95° |
| 2026-04-22 15:03 | 31.68727 | 118.54140 | 31043 ft | 507 kts | 95° |
| 2026-04-22 15:03 | 31.68424 | 118.58299 | 31041 ft | 507 kts | 95° |
| 2026-04-22 15:03 | 31.67834 | 118.66450 | 31043 ft | 508 kts | 96° |
| 2026-04-22 15:04 | 31.67220 | 118.74789 | 31045 ft | 507 kts | 96° |
| 2026-04-22 15:04 | 31.66614 | 118.82992 | 31044 ft | 508 kts | 96° |
| 2026-04-22 15:05 | 31.65995 | 118.91259 | 31043 ft | 508 kts | 96° |
| 2026-04-22 15:05 | 31.65364 | 118.99538 | 31042 ft | 510 kts | 96° |
| 2026-04-22 15:06 | 31.64800 | 119.07761 | 31032 ft | 509 kts | 94° |
| 2026-04-22 15:06 | 31.64406 | 119.16071 | 31043 ft | 510 kts | 94° |
| 2026-04-22 15:07 | 31.64052 | 119.24350 | 30601 ft | 508 kts | 94° |
| 2026-04-22 15:07 | 31.63871 | 119.28450 | 30093 ft | 506 kts | 94° |
| 2026-04-22 15:07 | 31.63688 | 119.32507 | 29327 ft | 505 kts | 94° |
| 2026-04-22 15:08 | 31.63496 | 119.36656 | 28681 ft | 510 kts | 94° |
| 2026-04-22 15:08 | 31.63305 | 119.40802 | 28135 ft | 512 kts | 94° |
| 2026-04-22 15:08 | 31.63110 | 119.44965 | 27627 ft | 512 kts | 94° |
| 2026-04-22 15:08 | 31.62912 | 119.49091 | 27156 ft | 513 kts | 94° |
| 2026-04-22 15:09 | 31.62711 | 119.53314 | 26812 ft | 513 kts | 94° |
| 2026-04-22 15:09 | 31.62508 | 119.57487 | 26510 ft | 512 kts | 94° |
| 2026-04-22 15:09 | 31.62310 | 119.61596 | 26017 ft | 508 kts | 94° |
| 2026-04-22 15:09 | 31.62110 | 119.65668 | 25200 ft | 503 kts | 95° |
| 2026-04-22 15:10 | 31.61912 | 119.69798 | 24580 ft | 512 kts | 94° |
| 2026-04-22 15:10 | 31.61721 | 119.73957 | 24108 ft | 513 kts | 94° |
| 2026-04-22 15:10 | 31.61532 | 119.78146 | 23717 ft | 514 kts | 94° |
| 2026-04-22 15:10 | 31.61342 | 119.82326 | 23351 ft | 513 kts | 95° |
| 2026-04-22 15:11 | 31.61149 | 119.86466 | 22804 ft | 509 kts | 94° |
| 2026-04-22 15:11 | 31.60954 | 119.90613 | 22069 ft | 509 kts | 94° |
| 2026-04-22 15:11 | 31.60761 | 119.94723 | 21565 ft | 498 kts | 94° |
| 2026-04-22 15:11 | 31.60577 | 119.98644 | 20972 ft | 476 kts | 94° |
| 2026-04-22 15:12 | 31.60397 | 120.02432 | 20449 ft | 452 kts | 94° |
| 2026-04-22 15:12 | 31.60226 | 120.06010 | 19970 ft | 434 kts | 94° |
| 2026-04-22 15:12 | 31.60055 | 120.09501 | 19491 ft | 430 kts | 94° |
| 2026-04-22 15:12 | 31.59885 | 120.12979 | 19015 ft | 426 kts | 94° |
| 2026-04-22 15:13 | 31.59715 | 120.16457 | 18531 ft | 424 kts | 94° |
| 2026-04-22 15:13 | 31.59547 | 120.19851 | 18056 ft | 421 kts | 94° |
| 2026-04-22 15:13 | 31.59380 | 120.23261 | 17574 ft | 419 kts | 94° |
| 2026-04-22 15:13 | 31.59207 | 120.26665 | 17096 ft | 417 kts | 94° |
| 2026-04-22 15:14 | 31.58999 | 120.30086 | 16618 ft | 414 kts | 98° |
| 2026-04-22 15:14 | 31.58487 | 120.33326 | 16358 ft | 403 kts | 105° |
| 2026-04-22 15:14 | 31.57663 | 120.36440 | 16340 ft | 389 kts | 112° |
| 2026-04-22 15:14 | 31.56440 | 120.39231 | 16332 ft | 385 kts | 125° |
| 2026-04-22 15:15 | 31.54942 | 120.41814 | 16323 ft | 384 kts | 128° |
| 2026-04-22 15:15 | 31.53405 | 120.44368 | 16324 ft | 385 kts | 128° |
| 2026-04-22 15:15 | 31.51875 | 120.46954 | 16330 ft | 385 kts | 127° |
| 2026-04-22 15:15 | 31.50380 | 120.49538 | 16330 ft | 386 kts | 127° |
| 2026-04-22 15:16 | 31.48887 | 120.52155 | 16335 ft | 386 kts | 126° |
| 2026-04-22 15:16 | 31.47406 | 120.54776 | 16333 ft | 386 kts | 126° |
| 2026-04-22 15:16 | 31.45925 | 120.57411 | 16321 ft | 378 kts | 126° |
| 2026-04-22 15:16 | 31.44516 | 120.59927 | 16319 ft | 362 kts | 126° |
| 2026-04-22 15:17 | 31.43159 | 120.62349 | 16316 ft | 347 kts | 126° |
| 2026-04-22 15:17 | 31.41876 | 120.64636 | 16310 ft | 333 kts | 127° |
| 2026-04-22 15:17 | 31.40628 | 120.66859 | 16308 ft | 318 kts | 128° |
| 2026-04-22 15:17 | 31.39424 | 120.68997 | 16302 ft | 304 kts | 128° |
| 2026-04-22 15:18 | 31.38284 | 120.71020 | 16302 ft | 297 kts | 128° |
| 2026-04-22 15:18 | 31.37140 | 120.73040 | 16311 ft | 297 kts | 128° |
| 2026-04-22 15:18 | 31.35856 | 120.74866 | 16277 ft | 287 kts | 150° |
| 2026-04-22 15:18 | 31.34099 | 120.75724 | 16078 ft | 265 kts | 183° |
| 2026-04-22 15:19 | 31.32350 | 120.75414 | 15703 ft | 253 kts | 209° |
| 2026-04-22 15:19 | 31.30903 | 120.74284 | 15335 ft | 247 kts | 230° |
| 2026-04-22 15:19 | 31.29957 | 120.72636 | 15009 ft | 243 kts | 248° |
| 2026-04-22 15:19 | 31.29566 | 120.70731 | 14665 ft | 244 kts | 269° |
| 2026-04-22 15:20 | 31.29679 | 120.69423 | 14357 ft | 251 kts | 283° |
| 2026-04-22 15:20 | 31.30427 | 120.66560 | 14120 ft | 293 kts | 280° |
| 2026-04-22 15:20 | 31.30635 | 120.64066 | 13690 ft | 329 kts | 267° |
| 2026-04-22 15:20 | 31.30223 | 120.61378 | 12478 ft | 354 kts | 253° |
| 2026-04-22 15:21 | 31.29300 | 120.58656 | 11207 ft | 373 kts | 249° |
| 2026-04-22 15:21 | 31.28658 | 120.55748 | 9905 ft | 373 kts | 269° |
| 2026-04-22 15:21 | 31.29162 | 120.52846 | 8993 ft | 356 kts | 297° |
| 2026-04-22 15:21 | 31.30657 | 120.50769 | 8725 ft | 326 kts | 324° |
| 2026-04-22 15:22 | 31.32703 | 120.49864 | 8584 ft | 300 kts | 355° |
| 2026-04-22 15:22 | 31.34642 | 120.50277 | 8452 ft | 280 kts | 25° |
| 2026-04-22 15:22 | 31.36209 | 120.51520 | 8330 ft | 263 kts | 40° |
| 2026-04-22 15:22 | 31.37481 | 120.53009 | 8204 ft | 254 kts | 47° |
| 2026-04-22 15:23 | 31.38573 | 120.54626 | 8075 ft | 249 kts | 54° |
| 2026-04-22 15:23 | 31.39435 | 120.56352 | 7947 ft | 244 kts | 64° |
| 2026-04-22 15:23 | 31.40027 | 120.58202 | 7824 ft | 244 kts | 74° |
| 2026-04-22 15:23 | 31.40297 | 120.60154 | 7700 ft | 245 kts | 86° |
| 2026-04-22 15:24 | 31.40201 | 120.62141 | 7576 ft | 245 kts | 99° |
| 2026-04-22 15:24 | 31.39751 | 120.64058 | 7452 ft | 246 kts | 108° |
| 2026-04-22 15:24 | 31.39178 | 120.65949 | 7325 ft | 245 kts | 108° |
| 2026-04-22 15:24 | 31.38602 | 120.67838 | 7198 ft | 244 kts | 108° |
| 2026-04-22 15:25 | 31.38136 | 120.69778 | 7081 ft | 265 kts | 93° |
| 2026-04-22 15:25 | 31.38208 | 120.72058 | 7085 ft | 288 kts | 82° |
| 2026-04-22 15:25 | 31.38463 | 120.74370 | 6949 ft | 281 kts | 81° |
| 2026-04-22 15:25 | 31.38704 | 120.76640 | 6825 ft | 278 kts | 82° |
| 2026-04-22 15:26 | 31.38908 | 120.78876 | 6703 ft | 276 kts | 83° |
| 2026-04-22 15:26 | 31.39083 | 120.81100 | 6580 ft | 275 kts | 83° |
| 2026-04-22 15:26 | 31.39240 | 120.83318 | 6451 ft | 274 kts | 84° |
| 2026-04-22 15:26 | 31.39161 | 120.85538 | 6302 ft | 276 kts | 106° |
| 2026-04-22 15:27 | 31.38120 | 120.87428 | 6180 ft | 279 kts | 137° |
| 2026-04-22 15:27 | 31.36578 | 120.88834 | 6060 ft | 280 kts | 142° |
| 2026-04-22 15:27 | 31.35040 | 120.90206 | 5937 ft | 279 kts | 141° |
| 2026-04-22 15:27 | 31.33502 | 120.91630 | 5912 ft | 280 kts | 140° |
| 2026-04-22 15:28 | 31.32005 | 120.93061 | 5910 ft | 281 kts | 139° |
| 2026-04-22 15:28 | 31.30500 | 120.94530 | 5908 ft | 281 kts | 139° |
| 2026-04-22 15:28 | 31.29006 | 120.96004 | 5911 ft | 280 kts | 138° |
| 2026-04-22 15:28 | 31.27507 | 120.97493 | 5904 ft | 280 kts | 138° |
| 2026-04-22 15:29 | 31.26009 | 120.98987 | 5902 ft | 280 kts | 138° |
| 2026-04-22 15:29 | 31.24537 | 121.00455 | 5859 ft | 279 kts | 138° |
| 2026-04-22 15:29 | 31.23054 | 121.01937 | 5738 ft | 278 kts | 138° |
| 2026-04-22 15:30 | 31.20599 | 121.04393 | 5524 ft | 277 kts | 138° |
| 2026-04-22 15:30 | 31.18654 | 121.06335 | 5350 ft | 277 kts | 138° |
| 2026-04-22 15:30 | 31.17185 | 121.07801 | 5217 ft | 277 kts | 137° |
| 2026-04-22 15:30 | 31.15713 | 121.09270 | 5061 ft | 277 kts | 137° |
| 2026-04-22 15:31 | 31.14253 | 121.10729 | 4887 ft | 276 kts | 138° |
| 2026-04-22 15:31 | 31.12797 | 121.12182 | 4701 ft | 275 kts | 138° |
| 2026-04-22 15:31 | 31.11331 | 121.13640 | 4431 ft | 275 kts | 137° |
| 2026-04-22 15:31 | 31.09891 | 121.15075 | 4131 ft | 275 kts | 137° |
| 2026-04-22 15:32 | 31.08425 | 121.16535 | 3817 ft | 275 kts | 137° |
| 2026-04-22 15:32 | 31.06984 | 121.17970 | 3499 ft | 275 kts | 137° |
| 2026-04-22 15:32 | 31.05512 | 121.19433 | 3182 ft | 275 kts | 137° |
| 2026-04-22 15:32 | 31.04087 | 121.20850 | 3127 ft | 263 kts | 137° |
| 2026-04-22 15:33 | 31.02713 | 121.22216 | 3112 ft | 252 kts | 137° |
| 2026-04-22 15:33 | 31.01442 | 121.23558 | 3053 ft | 240 kts | 126° |
| 2026-04-22 15:33 | 31.00849 | 121.25239 | 2984 ft | 217 kts | 87° |
| 2026-04-22 15:33 | 31.00964 | 121.26955 | 3018 ft | 208 kts | 78° |
| 2026-04-22 15:34 | 31.01155 | 121.28565 | 2904 ft | 192 kts | 78° |
| 2026-04-22 15:34 | 31.01301 | 121.30056 | 2747 ft | 182 kts | 80° |
| 2026-04-22 15:34 | 31.01411 | 121.31524 | 2446 ft | 181 kts | 81° |
| 2026-04-22 15:34 | 31.01542 | 121.32970 | 2212 ft | 177 kts | 69° |
| 2026-04-22 15:35 | 31.01950 | 121.33778 | 2044 ft | 170 kts | 41° |
| 2026-04-22 15:35 | 31.03390 | 121.34394 | 1999 ft | 167 kts | 7° |
| 2026-04-22 15:35 | 31.04491 | 121.34434 | 1960 ft | 151 kts | 1° |
| 2026-04-22 15:35 | 31.05540 | 121.34397 | 1971 ft | 149 kts | 360° |
| 2026-04-22 15:36 | 31.06582 | 121.34341 | 1976 ft | 149 kts | 359° |
| 2026-04-22 15:36 | 31.07623 | 121.34283 | 1981 ft | 149 kts | 359° |
| 2026-04-22 15:36 | 31.08647 | 121.34226 | 1943 ft | 145 kts | 360° |
| 2026-04-22 15:36 | 31.09638 | 121.34171 | 1740 ft | 139 kts | 0° |
| 2026-04-22 15:37 | 31.10589 | 121.34119 | 1553 ft | 137 kts | 0° |
| 2026-04-22 15:37 | 31.11541 | 121.34069 | 1366 ft | 137 kts | 360° |
| 2026-04-22 15:37 | 31.12501 | 121.34016 | 1180 ft | 136 kts | 0° |
| 2026-04-22 15:37 | 31.13452 | 121.33966 | 1000 ft | 136 kts | 359° |
| 2026-04-22 15:38 | 31.14400 | 121.33913 | 804 ft | 135 kts | 0° |
| 2026-04-22 15:38 | 31.16274 | 121.33813 | 461 ft | 135 kts | 357° |
| 2026-04-22 15:38 | 31.17220 | 121.33762 | 280 ft | 133 kts | 360° |
| 2026-04-22 15:39 | 31.18128 | 121.33720 | 96 ft | 128 kts | 359° |
| 2026-04-22 15:39 | 31.19008 | 121.33670 | 22 ft | 119 kts | 0° |
| 2026-04-22 15:39 | 31.19383 | 121.33655 | 22 ft | 0 kts | 357° |
| 2026-04-22 15:40 | 31.19384 | 121.33655 | 22 ft | 2 kts | 356° |
| 2026-04-22 15:40 | 31.19466 | 121.33649 | 22 ft | 21 kts | 357° |
| 2026-04-22 15:40 | 31.19670 | 121.33641 | 22 ft | 36 kts | 356° |
| 2026-04-22 15:40 | 31.19962 | 121.33623 | 22 ft | 43 kts | 357° |
| 2026-04-22 15:41 | 31.20251 | 121.33607 | 22 ft | 39 kts | 357° |
| 2026-04-22 15:41 | 31.20492 | 121.33588 | 22 ft | 30 kts | 349° |
| 2026-04-22 15:41 | 31.20677 | 121.33498 | 22 ft | 28 kts | 330° |
| 2026-04-22 15:41 | 31.20844 | 121.33390 | 22 ft | 26 kts | 341° |
| 2026-04-22 15:42 | 31.21020 | 121.33373 | 22 ft | 24 kts | 358° |
| 2026-04-22 15:42 | 31.21186 | 121.33363 | 22 ft | 23 kts | 357° |
| 2026-04-22 15:42 | 31.21342 | 121.33355 | 22 ft | 22 kts | 357° |
| 2026-04-22 15:42 | 31.21493 | 121.33348 | 22 ft | 21 kts | 358° |
| 2026-04-22 15:43 | 31.21639 | 121.33341 | 22 ft | 20 kts | 355° |
| 2026-04-22 15:43 | 31.21777 | 121.33330 | 22 ft | 19 kts | 358° |
| 2026-04-22 15:43 | 31.21877 | 121.33257 | 22 ft | 18 kts | 266° |
| 2026-04-22 15:43 | 31.21847 | 121.33099 | 22 ft | 23 kts | 258° |
| 2026-04-22 15:44 | 31.21794 | 121.32887 | 22 ft | 24 kts | 239° |
| 2026-04-22 15:44 | 31.21648 | 121.32847 | 22 ft | 24 kts | 175° |
| 2026-04-22 15:44 | 31.21445 | 121.32870 | 22 ft | 33 kts | 174° |
| 2026-04-22 15:44 | 31.21212 | 121.32893 | 22 ft | 32 kts | 176° |
| 2026-04-22 15:45 | 31.20996 | 121.32906 | 22 ft | 30 kts | 176° |
| 2026-04-22 15:45 | 31.20787 | 121.32919 | 22 ft | 29 kts | 179° |
| 2026-04-22 15:45 | 31.20572 | 121.32928 | 22 ft | 31 kts | 178° |
| 2026-04-22 15:45 | 31.20360 | 121.32940 | 22 ft | 29 kts | 177° |
| 2026-04-22 15:46 | 31.20154 | 121.32951 | 22 ft | 28 kts | 177° |
| 2026-04-22 15:46 | 31.19987 | 121.32960 | 22 ft | 18 kts | 176° |
| 2026-04-22 15:46 | 31.19931 | 121.32915 | 22 ft | 6 kts | 255° |
| 2026-04-22 15:46 | 31.19919 | 121.32860 | 22 ft | 3 kts | 257° |
| 2026-04-22 15:47 | 31.19916 | 121.32845 | 22 ft | 0 kts | 256° |
| 2026-04-22 15:47 | 31.19916 | 121.32844 | 22 ft | 0 kts | 256° |